createdAt,value
2019-01-31T00:01:54.958Z,99.90
2019-01-31T00:04:32.621Z,99.90
2019-01-31T00:07:07.221Z,99.90
2019-01-31T00:09:53.956Z,99.90
2019-01-31T00:12:31.273Z,99.90
2019-01-31T00:15:02.925Z,99.90
2019-01-31T00:17:46.529Z,99.90
2019-01-31T00:20:24.170Z,99.90
2019-01-31T00:23:15.367Z,99.90
2019-01-31T00:25:47.008Z,99.90
2019-01-31T00:28:50.601Z,99.90
2019-01-31T00:31:28.109Z,99.90
2019-01-31T00:34:14.951Z,99.90
2019-01-31T00:36:52.730Z,99.90
2019-01-31T00:39:39.314Z,99.90
2019-01-31T00:42:28.787Z,99.90
2019-01-31T00:45:17.026Z,99.90
2019-01-31T00:47:57.470Z,99.90
2019-01-31T00:50:50.162Z,99.90
2019-01-31T00:53:39.726Z,99.90
2019-01-31T00:56:20.086Z,99.90
2019-01-31T00:58:57.528Z,99.90
2019-01-31T01:01:29.185Z,99.90
2019-01-31T01:04:15.934Z,99.90
2019-01-31T01:06:53.452Z,99.90
2019-01-31T01:09:43.267Z,99.90
2019-01-31T01:12:26.795Z,99.90
2019-01-31T01:14:58.502Z,99.90
2019-01-31T01:17:35.867Z,99.90
2019-01-31T01:20:13.290Z,99.90
2019-01-31T01:22:54.202Z,99.90
2019-01-31T01:25:31.666Z,99.90
2019-01-31T01:28:03.308Z,99.90
2019-01-31T01:30:50.056Z,99.90
2019-01-31T01:33:51.872Z,99.90
2019-01-31T01:36:26.070Z,99.90
2019-01-31T01:39:18.982Z,99.90
2019-01-31T01:41:51.304Z,99.90
2019-01-31T01:44:39.402Z,99.90
2019-01-31T01:47:25.540Z,99.90
2019-01-31T01:50:00.197Z,99.90
2019-01-31T01:52:40.768Z,99.90
2019-01-31T01:55:21.563Z,99.90
2019-01-31T01:57:59.149Z,99.90
2019-01-31T02:00:42.891Z,99.90
2019-01-31T02:03:23.545Z,99.90
2019-01-31T02:06:13.393Z,99.90
2019-01-31T02:08:56.888Z,99.90
2019-01-31T02:11:53.727Z,99.90
2019-01-31T02:14:25.371Z,99.90
2019-01-31T02:17:11.769Z,99.90
2019-01-31T02:20:01.280Z,99.90
2019-01-31T02:22:55.490Z,99.90
2019-01-31T02:25:29.785Z,99.90
2019-01-31T02:28:13.058Z,99.90
2019-01-31T02:30:59.337Z,99.90
2019-01-31T02:33:50.365Z,99.90
2019-01-31T02:36:33.912Z,99.90
2019-01-31T02:39:27.285Z,99.90
2019-01-31T02:42:08.040Z,99.90
2019-01-31T02:44:48.563Z,99.90
2019-01-31T02:47:25.949Z,99.90
2019-01-31T02:50:12.582Z,99.90
2019-01-31T02:53:02.301Z,99.90
2019-01-31T02:55:52.196Z,99.90
2019-01-31T02:58:32.098Z,99.90
2019-01-31T03:01:24.975Z,99.90
2019-01-31T03:04:11.868Z,99.90
2019-01-31T03:07:13.759Z,99.90
2019-01-31T03:09:55.046Z,99.90
2019-01-31T03:12:42.313Z,99.90
2019-01-31T03:15:19.899Z,99.90
2019-01-31T03:18:06.451Z,99.90
2019-01-31T03:20:40.770Z,99.90
2019-01-31T03:23:27.751Z,99.90
2019-01-31T03:26:02.273Z,99.90
2019-01-31T03:28:42.666Z,99.90
2019-01-31T03:31:17.003Z,99.90
2019-01-31T03:34:08.451Z,99.90
2019-01-31T03:36:56.471Z,99.90
2019-01-31T03:39:28.124Z,99.90
2019-01-31T03:42:08.693Z,99.90
2019-01-31T03:44:40.347Z,99.90
2019-01-31T03:47:35.941Z,99.90
2019-01-31T03:50:22.355Z,99.90
2019-01-31T03:52:59.617Z,99.90
2019-01-31T03:55:34.137Z,99.90
2019-01-31T03:58:14.561Z,99.90
2019-01-31T04:01:19.892Z,99.90
2019-01-31T04:04:09.606Z,99.90
2019-01-31T04:06:38.181Z,99.90
2019-01-31T04:09:08.728Z,99.90
2019-01-31T04:11:37.373Z,99.90
2019-01-31T04:14:05.964Z,99.90
2019-01-31T04:16:34.553Z,99.90
2019-01-31T04:19:03.174Z,99.90
2019-01-31T04:21:31.881Z,99.90
2019-01-31T04:24:00.471Z,99.90
2019-01-31T04:26:29.040Z,99.90
2019-01-31T04:28:57.629Z,99.90
2019-01-31T04:31:26.204Z,99.90
2019-01-31T04:33:54.794Z,99.90
2019-01-31T04:36:23.378Z,99.90
2019-01-31T04:38:51.968Z,99.90
2019-01-31T04:41:20.532Z,99.90
2019-01-31T04:43:49.123Z,99.90
2019-01-31T04:46:17.772Z,99.90
2019-01-31T04:48:46.333Z,99.90
2019-01-31T04:51:14.902Z,99.90
2019-01-31T04:53:43.501Z,99.90
2019-01-31T04:56:12.057Z,99.90
2019-01-31T04:58:40.691Z,99.90
2019-01-31T05:01:09.356Z,99.90
2019-01-31T05:03:37.958Z,99.90
2019-01-31T05:06:06.545Z,99.90
2019-01-31T05:08:35.134Z,99.90
2019-01-31T05:11:03.761Z,99.90
2019-01-31T05:13:32.340Z,99.90
2019-01-31T05:16:03.494Z,99.90
2019-01-31T05:18:31.147Z,99.90
2019-01-31T05:20:59.749Z,99.90
2019-01-31T05:23:28.315Z,99.90
2019-01-31T05:25:56.975Z,99.90
2019-01-31T05:28:25.588Z,99.90
2019-01-31T05:30:54.190Z,99.90
2019-01-31T05:33:22.788Z,99.90
2019-01-31T05:35:51.402Z,99.90
2019-01-31T05:38:20.013Z,99.90
2019-01-31T05:40:55.580Z,99.90
2019-01-31T05:43:18.836Z,99.90
2019-01-31T05:45:47.505Z,99.90
2019-01-31T05:48:16.040Z,99.90
2019-01-31T05:50:44.620Z,99.90
2019-01-31T05:53:13.265Z,99.90
2019-01-31T05:55:41.847Z,99.90
2019-01-31T05:58:10.443Z,99.90
2019-01-31T06:00:39.640Z,99.90
2019-01-31T06:03:08.229Z,99.90
2019-01-31T06:05:36.812Z,99.90
2019-01-31T06:08:05.400Z,99.90
2019-01-31T06:10:33.993Z,99.90
2019-01-31T06:13:02.586Z,99.90
2019-01-31T06:15:31.167Z,99.90
2019-01-31T06:17:59.728Z,99.90
2019-01-31T06:20:28.474Z,99.90
2019-01-31T06:22:56.996Z,99.90
2019-01-31T06:25:25.593Z,99.90
2019-01-31T06:27:54.226Z,99.90
2019-01-31T06:30:22.822Z,99.90
2019-01-31T06:32:51.388Z,99.90
2019-01-31T06:35:20.138Z,99.90
2019-01-31T06:37:48.718Z,99.90
2019-01-31T06:40:21.312Z,99.90
2019-01-31T06:42:50.154Z,99.90
2019-01-31T06:45:20.808Z,99.90
2019-01-31T06:47:49.378Z,99.90
2019-01-31T06:50:17.997Z,99.90
2019-01-31T06:52:46.609Z,99.90
2019-01-31T06:55:15.270Z,99.90
2019-01-31T06:57:43.831Z,99.90
2019-01-31T07:00:15.619Z,99.90
2019-01-31T07:02:44.181Z,99.90
2019-01-31T07:05:12.774Z,99.90
2019-01-31T07:07:41.350Z,99.90
2019-01-31T07:10:12.996Z,99.90
2019-01-31T07:12:41.643Z,99.90
2019-01-31T07:15:11.874Z,99.90
2019-01-31T07:17:40.506Z,99.90
2019-01-31T07:20:14.664Z,99.90
2019-01-31T07:22:43.238Z,99.90
2019-01-31T07:25:15.078Z,99.90
2019-01-31T07:27:43.617Z,99.90
2019-01-31T07:30:15.059Z,99.90
2019-01-31T07:32:43.680Z,99.90
2019-01-31T07:35:13.976Z,99.90
2019-01-31T07:37:42.614Z,99.90
2019-01-31T07:40:14.117Z,99.90
2019-01-31T07:42:42.702Z,99.90
2019-01-31T07:45:29.052Z,99.90
2019-01-31T07:47:57.783Z,99.90
2019-01-31T07:50:26.784Z,99.90
2019-01-31T07:52:55.780Z,99.90
2019-01-31T07:55:24.488Z,99.90
2019-01-31T07:57:53.112Z,99.90
2019-01-31T08:00:25.661Z,99.90
2019-01-31T08:02:54.983Z,99.90
2019-01-31T08:05:24.655Z,99.90
2019-01-31T08:07:56.387Z,99.90
2019-01-31T08:10:36.532Z,99.90
2019-01-31T08:13:06.321Z,99.90
2019-01-31T08:15:34.943Z,99.90
2019-01-31T08:18:03.671Z,99.90
2019-01-31T08:20:32.262Z,99.90
2019-01-31T08:23:00.862Z,99.90
2019-01-31T08:25:29.843Z,99.90
2019-01-31T08:27:58.689Z,99.90
2019-01-31T08:30:30.361Z,99.90
2019-01-31T08:32:59.184Z,99.90
2019-01-31T08:35:27.999Z,99.90
2019-01-31T08:37:56.642Z,99.90
2019-01-31T08:40:25.266Z,99.90
2019-01-31T08:42:53.942Z,99.90
2019-01-31T08:45:22.537Z,99.90
2019-01-31T08:47:51.103Z,99.90
2019-01-31T08:50:22.059Z,99.90
2019-01-31T08:52:50.642Z,99.90
2019-01-31T08:55:19.430Z,99.90
2019-01-31T08:57:48.284Z,99.90
2019-01-31T09:00:25.368Z,99.90
2019-01-31T09:02:53.944Z,99.90
2019-01-31T09:05:22.599Z,99.90
2019-01-31T09:07:51.383Z,99.90
2019-01-31T09:10:28.838Z,99.90
2019-01-31T09:12:58.360Z,99.90
2019-01-31T09:15:27.681Z,99.90
2019-01-31T09:17:56.585Z,99.90
2019-01-31T09:20:28.278Z,99.90
2019-01-31T09:23:08.787Z,99.90
2019-01-31T09:25:43.380Z,99.90
2019-01-31T09:28:17.995Z,99.90
2019-01-31T09:31:23.028Z,99.90
2019-01-31T09:34:15.139Z,99.90
2019-01-31T09:36:53.641Z,99.90
2019-01-31T09:39:25.287Z,99.90
2019-01-31T09:42:11.486Z,99.90
2019-01-31T09:45:07.530Z,99.90
2019-01-31T09:47:41.950Z,99.90
2019-01-31T09:50:39.162Z,98.50
2019-01-31T09:53:19.783Z,96.40
2019-01-31T09:56:12.812Z,97.60
2019-01-31T09:58:44.514Z,99.10
2019-01-31T10:01:44.899Z,98.50
2019-01-31T10:04:22.327Z,99.50
2019-01-31T10:07:21.366Z,96.80
2019-01-31T10:09:58.763Z,94.80
2019-01-31T10:12:39.758Z,88.30
2019-01-31T10:15:17.212Z,89.70
2019-01-31T10:17:49.473Z,90.00
2019-01-31T10:20:30.407Z,95.40
2019-01-31T10:23:19.580Z,93.10
2019-01-31T10:25:56.885Z,89.20
2019-01-31T10:28:49.792Z,84.90
2019-01-31T10:31:27.018Z,71.50
2019-01-31T10:34:10.826Z,58.60
2019-01-31T10:36:48.158Z,59.40
2019-01-31T10:39:28.656Z,58.60
2019-01-31T10:42:12.233Z,52.10
2019-01-31T10:44:52.159Z,47.40
2019-01-31T10:47:32.734Z,48.40
2019-01-31T10:50:19.631Z,47.80
2019-01-31T10:52:54.238Z,45.60
2019-01-31T10:55:34.405Z,43.10
2019-01-31T10:58:11.840Z,46.30
2019-01-31T11:00:58.478Z,48.20
2019-01-31T11:03:33.022Z,45.80
2019-01-31T11:06:16.937Z,46.40
2019-01-31T11:09:00.388Z,48.40
2019-01-31T11:11:37.581Z,49.10
2019-01-31T11:14:09.290Z,47.10
2019-01-31T11:16:47.000Z,43.90
2019-01-31T11:19:27.955Z,43.20
2019-01-31T11:22:06.028Z,43.10
2019-01-31T11:24:49.837Z,43.10
2019-01-31T11:27:38.091Z,40.30
2019-01-31T11:30:18.541Z,38.80
2019-01-31T11:33:02.719Z,38.60
2019-01-31T11:35:54.139Z,39.80
2019-01-31T11:38:37.796Z,40.70
2019-01-31T11:41:15.492Z,41.30
2019-01-31T11:44:07.103Z,42.30
2019-01-31T11:46:53.845Z,42.40
2019-01-31T11:49:25.601Z,41.20
2019-01-31T11:52:12.561Z,42.90
2019-01-31T11:54:46.903Z,44.50
2019-01-31T11:57:30.298Z,43.90
2019-01-31T11:59:59.281Z,41.90
2019-01-31T12:02:27.938Z,39.40
2019-01-31T12:04:56.502Z,38.20
2019-01-31T12:07:25.124Z,36.80
2019-01-31T12:09:53.876Z,37.60
2019-01-31T12:12:22.558Z,37.80
2019-01-31T12:14:51.133Z,36.60
2019-01-31T12:17:19.946Z,36.70
2019-01-31T12:19:48.519Z,35.20
2019-01-31T12:22:17.106Z,35.10
2019-01-31T12:24:45.691Z,35.00
2019-01-31T12:27:14.329Z,36.30
2019-01-31T12:29:42.886Z,36.90
2019-01-31T12:32:11.549Z,38.60
2019-01-31T12:34:43.269Z,42.00
2019-01-31T12:37:12.201Z,47.30
2019-01-31T12:39:40.962Z,55.30
2019-01-31T12:42:10.007Z,73.00
2019-01-31T12:44:38.546Z,86.10
2019-01-31T12:47:07.127Z,92.40
2019-01-31T12:49:35.766Z,94.90
2019-01-31T12:52:07.545Z,96.90
2019-01-31T12:54:36.105Z,96.80
2019-01-31T12:57:07.824Z,96.90
2019-01-31T12:59:38.960Z,97.80
2019-01-31T13:02:10.874Z,98.50
2019-01-31T13:04:39.435Z,99.90
2019-01-31T13:07:08.607Z,99.90
2019-01-31T13:09:37.255Z,99.90
2019-01-31T13:12:06.176Z,99.90
2019-01-31T13:14:34.819Z,99.90
2019-01-31T13:17:05.005Z,99.90
2019-01-31T13:19:34.083Z,99.90
2019-01-31T13:22:02.706Z,99.90
2019-01-31T13:24:33.935Z,99.90
2019-01-31T13:27:02.495Z,99.90
2019-01-31T13:29:31.071Z,99.90
2019-01-31T13:31:59.641Z,99.90
2019-01-31T13:34:28.275Z,99.90
2019-01-31T13:36:56.913Z,99.90
2019-01-31T13:39:25.577Z,99.90
2019-01-31T13:41:54.149Z,99.90
2019-01-31T13:44:23.205Z,99.90
2019-01-31T13:46:52.208Z,99.90
2019-01-31T13:49:20.952Z,99.90
2019-01-31T13:51:49.537Z,99.90
2019-01-31T13:54:18.141Z,99.90
2019-01-31T13:56:46.730Z,99.90
2019-01-31T13:59:15.418Z,99.90
2019-01-31T14:01:43.995Z,99.90
2019-01-31T14:04:12.608Z,99.90
2019-01-31T14:06:41.637Z,99.90
2019-01-31T14:09:10.965Z,99.90
2019-01-31T14:11:39.512Z,99.90
2019-01-31T14:14:09.437Z,99.90
2019-01-31T14:16:47.299Z,99.90
2019-01-31T14:19:08.851Z,99.90
2019-01-31T14:21:37.415Z,99.90
2019-01-31T14:24:06.632Z,99.90
2019-01-31T14:26:35.223Z,99.90
2019-01-31T14:29:04.190Z,99.90
2019-01-31T14:31:32.766Z,99.90
2019-01-31T14:34:01.372Z,99.90
2019-01-31T14:36:29.941Z,99.90
2019-01-31T14:39:01.390Z,99.90
2019-01-31T14:41:28.799Z,99.90
2019-01-31T14:43:57.465Z,99.90
2019-01-31T14:46:26.352Z,99.90
2019-01-31T14:48:54.958Z,99.90
2019-01-31T14:51:23.527Z,99.90
2019-01-31T14:53:52.152Z,99.90
2019-01-31T14:56:20.725Z,99.90
2019-01-31T14:58:49.328Z,99.90
2019-01-31T15:01:17.911Z,99.90
2019-01-31T15:03:46.594Z,99.90
2019-01-31T15:06:15.180Z,99.90
2019-01-31T15:08:43.789Z,99.90
2019-01-31T15:11:12.368Z,99.90
2019-01-31T15:13:40.972Z,99.90
2019-01-31T15:16:09.551Z,99.90
2019-01-31T15:18:38.430Z,99.90
2019-01-31T15:21:07.334Z,99.90
2019-01-31T15:23:35.937Z,99.90
2019-01-31T15:26:04.756Z,99.90
2019-01-31T15:28:33.351Z,99.90
2019-01-31T15:31:02.257Z,99.90
2019-01-31T15:33:30.865Z,99.90
2019-01-31T15:35:59.446Z,99.90
2019-01-31T15:38:28.028Z,99.90
2019-01-31T15:41:39.435Z,99.90
2019-01-31T15:44:08.044Z,99.90
2019-01-31T15:46:36.626Z,99.90
2019-01-31T15:49:05.262Z,99.90
2019-01-31T15:51:34.185Z,99.90
2019-01-31T15:54:02.962Z,99.90
2019-01-31T15:56:31.546Z,99.90
2019-01-31T15:59:19.581Z,99.90
2019-01-31T16:01:49.833Z,99.90
2019-01-31T16:04:18.437Z,99.90
2019-01-31T16:06:48.644Z,99.90
2019-01-31T16:09:17.223Z,99.90
2019-01-31T16:11:45.810Z,99.90
2019-01-31T16:14:14.446Z,99.90
2019-01-31T16:16:42.996Z,99.90
2019-01-31T16:19:11.628Z,99.90
2019-01-31T16:21:40.209Z,99.90
2019-01-31T16:24:08.874Z,99.90
2019-01-31T16:26:37.467Z,99.90
2019-01-31T16:29:06.104Z,99.90
2019-01-31T16:31:34.713Z,99.90
2019-01-31T16:34:03.319Z,99.90
2019-01-31T16:36:31.924Z,99.90
2019-01-31T16:39:00.518Z,99.90
2019-01-31T16:41:29.167Z,99.90
2019-01-31T16:43:57.754Z,99.90
2019-01-31T16:46:26.346Z,99.90
2019-01-31T16:48:54.977Z,99.90
2019-01-31T16:51:23.589Z,99.90
2019-01-31T16:53:52.134Z,99.90
2019-01-31T16:56:20.755Z,99.90
2019-01-31T16:58:49.309Z,99.90
2019-01-31T17:01:17.877Z,99.90
2019-01-31T17:03:46.529Z,99.90
2019-01-31T17:06:15.131Z,99.90
2019-01-31T17:08:43.713Z,99.90
2019-01-31T17:11:12.306Z,99.90
2019-01-31T17:13:40.871Z,99.90
2019-01-31T17:16:09.478Z,99.90
2019-01-31T17:18:38.038Z,99.90
2019-01-31T17:21:06.660Z,99.90
2019-01-31T17:23:35.247Z,99.90
2019-01-31T17:26:03.826Z,99.90
2019-01-31T17:28:32.529Z,99.90
2019-01-31T17:31:01.200Z,99.90
2019-01-31T17:33:29.752Z,99.90
2019-01-31T17:35:58.487Z,99.90
2019-01-31T17:38:27.067Z,99.90
2019-01-31T17:40:55.721Z,99.90
2019-01-31T17:43:24.299Z,99.90
2019-01-31T17:45:53.078Z,99.90
2019-01-31T17:48:21.829Z,99.90
2019-01-31T17:50:50.408Z,99.90
2019-01-31T17:53:18.995Z,99.90
2019-01-31T17:55:47.597Z,99.90
2019-01-31T17:58:16.244Z,99.90
2019-01-31T18:00:49.424Z,99.90
2019-01-31T18:03:18.051Z,99.90
2019-01-31T18:05:48.459Z,99.90
2019-01-31T18:08:17.744Z,99.90
2019-01-31T18:10:46.330Z,99.90
2019-01-31T18:13:15.069Z,99.90
2019-01-31T18:15:43.634Z,99.90
2019-01-31T18:18:12.330Z,99.90
2019-01-31T18:20:40.953Z,99.90
2019-01-31T18:23:12.408Z,99.90
2019-01-31T18:25:41.124Z,99.90
2019-01-31T18:28:12.240Z,99.90
2019-01-31T18:30:40.240Z,99.90
2019-01-31T18:33:08.968Z,99.90
2019-01-31T18:35:37.817Z,99.90
2019-01-31T18:38:06.678Z,99.90
2019-01-31T18:40:36.120Z,99.90
2019-01-31T18:43:05.437Z,99.90
2019-01-31T18:45:35.581Z,99.90
2019-01-31T18:48:05.129Z,99.90
2019-01-31T18:50:35.952Z,99.90
2019-01-31T18:53:04.704Z,99.90
2019-01-31T18:55:33.344Z,99.90
2019-01-31T18:58:02.091Z,99.90
2019-01-31T19:00:33.400Z,99.90
2019-01-31T19:03:02.090Z,99.90
2019-01-31T19:05:31.175Z,99.90
2019-01-31T19:08:00.013Z,99.90
2019-01-31T19:10:30.262Z,99.90
2019-01-31T19:13:01.541Z,99.90
2019-01-31T19:15:30.538Z,99.90
2019-01-31T19:18:06.079Z,99.90
2019-01-31T19:20:36.512Z,99.90
2019-01-31T19:23:07.250Z,99.90
2019-01-31T19:25:36.158Z,99.90
2019-01-31T19:28:05.482Z,99.90
2019-01-31T19:30:43.707Z,99.90
2019-01-31T19:33:12.630Z,99.90
2019-01-31T19:35:41.211Z,99.90
2019-01-31T19:38:09.993Z,99.90
2019-01-31T19:40:41.171Z,99.90
2019-01-31T19:43:09.999Z,99.90
2019-01-31T19:45:40.763Z,99.90
2019-01-31T19:48:10.797Z,99.90
2019-01-31T19:50:39.566Z,99.90
2019-01-31T19:53:08.148Z,99.90
2019-01-31T19:55:36.834Z,99.90
2019-01-31T19:58:05.684Z,99.90
2019-01-31T20:00:34.377Z,99.90
2019-01-31T20:03:06.130Z,99.90
2019-01-31T20:05:35.090Z,99.90
2019-01-31T20:08:04.550Z,99.90
2019-01-31T20:10:33.241Z,99.90
2019-01-31T20:13:02.002Z,99.90
2019-01-31T20:15:30.917Z,99.90
2019-01-31T20:18:00.248Z,99.90
2019-01-31T20:20:30.428Z,99.90
2019-01-31T20:22:59.920Z,99.90
2019-01-31T20:25:30.064Z,99.90
2019-01-31T20:27:59.086Z,99.90
2019-01-31T20:30:32.843Z,99.90
2019-01-31T20:33:02.435Z,99.90
2019-01-31T20:35:31.285Z,99.90
2019-01-31T20:38:00.198Z,99.90
2019-01-31T20:40:37.566Z,99.90
2019-01-31T20:43:07.255Z,99.90
2019-01-31T20:45:36.355Z,99.90
2019-01-31T20:48:05.816Z,99.90
2019-01-31T20:50:38.605Z,99.90
2019-01-31T20:53:07.806Z,99.90
2019-01-31T20:55:36.767Z,99.90
2019-01-31T20:58:05.694Z,99.90
2019-01-31T21:00:39.489Z,99.90
2019-01-31T21:03:09.044Z,99.90
2019-01-31T21:05:38.285Z,99.90
2019-01-31T21:08:08.609Z,99.90
2019-01-31T21:10:37.298Z,99.90
2019-01-31T21:13:06.605Z,99.90
2019-01-31T21:15:35.286Z,99.90
2019-01-31T21:18:04.513Z,99.90
2019-01-31T21:20:33.274Z,99.90
2019-01-31T21:23:02.183Z,99.90
2019-01-31T21:25:30.827Z,99.90
2019-01-31T21:27:59.403Z,99.90
2019-01-31T21:30:30.630Z,99.90
2019-01-31T21:32:59.560Z,99.90
2019-01-31T21:35:28.805Z,99.90
2019-01-31T21:37:57.608Z,99.90
2019-01-31T21:40:28.571Z,99.90
2019-01-31T21:42:57.210Z,99.90
2019-01-31T21:45:27.403Z,99.90
2019-01-31T21:47:56.045Z,99.90
2019-01-31T21:50:29.567Z,99.90
2019-01-31T21:52:58.274Z,99.90
2019-01-31T21:55:27.459Z,99.90
2019-01-31T21:57:56.406Z,99.90
2019-01-31T22:00:35.723Z,99.90
2019-01-31T22:03:05.366Z,99.90
2019-01-31T22:05:34.092Z,99.90
2019-01-31T22:08:02.744Z,99.90
2019-01-31T22:10:31.341Z,99.90
2019-01-31T22:13:02.629Z,99.90
2019-01-31T22:15:35.572Z,99.90
2019-01-31T22:18:05.302Z,99.90
2019-01-31T22:20:33.835Z,99.90
2019-01-31T22:23:02.457Z,99.90
2019-01-31T22:25:31.072Z,99.90
2019-01-31T22:27:59.650Z,99.90
2019-01-31T22:30:30.726Z,99.90
2019-01-31T22:33:00.539Z,99.90
2019-01-31T22:35:29.182Z,99.90
2019-01-31T22:37:57.821Z,99.90
2019-01-31T22:40:26.492Z,99.90
2019-01-31T22:42:55.138Z,99.90
2019-01-31T22:45:24.775Z,99.90
2019-01-31T22:47:53.718Z,99.90
2019-01-31T22:50:23.856Z,99.90
2019-01-31T22:52:52.470Z,99.90
2019-01-31T22:55:25.434Z,99.90
2019-01-31T22:57:54.093Z,99.90
2019-01-31T23:01:06.815Z,99.90
2019-01-31T23:03:35.710Z,99.90
2019-01-31T23:06:05.258Z,99.90
2019-01-31T23:08:33.921Z,99.90
2019-01-31T23:11:02.577Z,99.90
2019-01-31T23:13:31.141Z,99.90
2019-01-31T23:15:59.774Z,99.90
2019-01-31T23:18:28.443Z,99.90
2019-01-31T23:20:57.098Z,99.90
2019-01-31T23:23:25.665Z,99.90
2019-01-31T23:25:54.281Z,99.90
2019-01-31T23:28:22.842Z,99.90
2019-01-31T23:30:51.442Z,99.90
2019-01-31T23:33:20.036Z,99.90
2019-01-31T23:35:48.628Z,99.90
2019-01-31T23:38:17.202Z,99.90
2019-01-31T23:40:45.771Z,99.90
2019-01-31T23:43:14.358Z,99.90
2019-01-31T23:45:42.942Z,99.90
2019-01-31T23:48:11.551Z,99.90
2019-01-31T23:50:40.118Z,99.90
2019-01-31T23:53:08.712Z,99.90
2019-01-31T23:55:37.354Z,99.90
2019-01-31T23:58:05.942Z,99.90
